sensor_id;sensor_type;location;lat;lon;timestamp;pressure;altitude;pressure_sealevel;temperature;humidity
71774;BME280;59607;52.130;5.430;2023-02-28T00:02:06;103320.09;;;2.33;96.44
71774;BME280;59607;52.130;5.430;2023-02-28T00:04:35;103300.97;;;2.38;96.49
71774;BME280;59607;52.130;5.430;2023-02-28T00:07:02;103303.50;;;2.39;96.37
71774;BME280;59607;52.130;5.430;2023-02-28T00:09:30;103307.88;;;2.37;96.92
71774;BME280;59607;52.130;5.430;2023-02-28T00:12:01;103314.78;;;2.38;96.11
71774;BME280;59607;52.130;5.430;2023-02-28T00:14:39;103318.09;;;2.42;96.53
71774;BME280;59607;52.130;5.430;2023-02-28T00:17:05;103319.06;;;2.39;96.80
71774;BME280;59607;52.130;5.430;2023-02-28T00:19:32;103323.28;;;2.42;97.21
71774;BME280;59607;52.130;5.430;2023-02-28T00:22:04;103318.81;;;2.47;96.95
71774;BME280;59607;52.130;5.430;2023-02-28T00:24:31;103317.88;;;2.50;97.14
71774;BME280;59607;52.130;5.430;2023-02-28T00:27:00;103323.13;;;2.48;97.19
71774;BME280;59607;52.130;5.430;2023-02-28T00:29:34;103323.13;;;2.48;97.13
71774;BME280;59607;52.130;5.430;2023-02-28T00:32:07;103325.66;;;2.50;97.02
71774;BME280;59607;52.130;5.430;2023-02-28T00:34:34;103316.97;;;2.51;97.48
71774;BME280;59607;52.130;5.430;2023-02-28T00:37:11;103315.09;;;2.56;97.56
71774;BME280;59607;52.130;5.430;2023-02-28T00:39:40;103315.94;;;2.56;97.60
71774;BME280;59607;52.130;5.430;2023-02-28T00:42:14;103318.47;;;2.58;97.49
71774;BME280;59607;52.130;5.430;2023-02-28T00:44:41;103311.50;;;2.60;97.50
71774;BME280;59607;52.130;5.430;2023-02-28T00:47:17;103315.81;;;2.61;97.77
71774;BME280;59607;52.130;5.430;2023-02-28T00:49:44;103309.72;;;2.62;97.19
71774;BME280;59607;52.130;5.430;2023-02-28T00:52:12;103311.41;;;2.63;97.43
71774;BME280;59607;52.130;5.430;2023-02-28T00:54:41;103311.50;;;2.60;97.87
71774;BME280;59607;52.130;5.430;2023-02-28T00:57:07;103315.81;;;2.61;97.77
71774;BME280;59607;52.130;5.430;2023-02-28T00:59:36;103308.75;;;2.65;98.29
71774;BME280;59607;52.130;5.430;2023-02-28T01:02:04;103316.44;;;2.68;97.86
71774;BME280;59607;52.130;5.430;2023-02-28T01:04:31;103321.63;;;2.68;98.03
71774;BME280;59607;52.130;5.430;2023-02-28T01:07:03;103316.38;;;2.69;97.78
71774;BME280;59607;52.130;5.430;2023-02-28T01:09:32;103318.09;;;2.70;98.13
71774;BME280;59607;52.130;5.430;2023-02-28T01:11:59;103314.59;;;2.71;97.67
71774;BME280;59607;52.130;5.430;2023-02-28T01:14:28;103317.97;;;2.75;97.95
71774;BME280;59607;52.130;5.430;2023-02-28T01:16:57;103312.72;;;2.77;97.44
71774;BME280;59607;52.130;5.430;2023-02-28T01:19:24;103313.44;;;2.82;97.26
71774;BME280;59607;52.130;5.430;2023-02-28T01:21:50;103315.06;;;2.84;96.93
71774;BME280;59607;52.130;5.430;2023-02-28T01:24:17;103311.72;;;2.81;97.33
71774;BME280;59607;52.130;5.430;2023-02-28T01:26:44;103307.38;;;2.81;97.47
71774;BME280;59607;52.130;5.430;2023-02-28T01:29:10;103302.16;;;2.83;97.52
71774;BME280;59607;52.130;5.430;2023-02-28T01:31:43;103300.38;;;2.85;97.25
71774;BME280;59607;52.130;5.430;2023-02-28T01:34:09;103299.47;;;2.86;96.93
71774;BME280;59607;52.130;5.430;2023-02-28T01:36:36;103303.72;;;2.87;97.03
71774;BME280;59607;52.130;5.430;2023-02-28T01:39:08;103301.94;;;2.89;97.33
71774;BME280;59607;52.130;5.430;2023-02-28T01:41:35;103305.28;;;2.93;96.72
71774;BME280;59607;52.130;5.430;2023-02-28T01:46:56;103305.88;;;3.01;95.75
71774;BME280;59607;52.130;5.430;2023-02-28T01:49:23;103298.16;;;3.00;96.22
71774;BME280;59607;52.130;5.430;2023-02-28T01:51:54;103293.75;;;3.02;95.96
71774;BME280;59607;52.130;5.430;2023-02-28T01:54:24;103294.44;;;3.07;95.85
71774;BME280;59607;52.130;5.430;2023-02-28T01:57:02;103293.63;;;3.06;95.64
71774;BME280;59607;52.130;5.430;2023-02-28T01:59:54;103289.28;;;3.07;95.44
71774;BME280;59607;52.130;5.430;2023-02-28T02:02:25;103283.97;;;3.10;95.54
71774;BME280;59607;52.130;5.430;2023-02-28T02:05:05;103279.75;;;3.07;95.44
71774;BME280;59607;52.130;5.430;2023-02-28T02:07:38;103275.38;;;3.10;95.92
71774;BME280;59607;52.130;5.430;2023-02-28T02:16:56;103274.63;;;3.06;95.89
71774;BME280;59607;52.130;5.430;2023-02-28T02:34:18;103278.19;;;3.02;97.08
71774;BME280;59607;52.130;5.430;2023-02-28T02:39:58;103274.69;;;3.04;97.51
71774;BME280;59607;52.130;5.430;2023-02-28T02:42:54;103275.47;;;3.06;97.27
71774;BME280;59607;52.130;5.430;2023-02-28T02:45:49;103282.28;;;3.09;97.44
71774;BME280;59607;52.130;5.430;2023-02-28T02:48:25;103289.09;;;3.12;97.52
71774;BME280;59607;52.130;5.430;2023-02-28T02:51:03;103277.81;;;3.14;97.80
71774;BME280;59607;52.130;5.430;2023-02-28T02:53:42;103271.69;;;3.15;98.43
71774;BME280;59607;52.130;5.430;2023-02-28T02:56:15;103275.97;;;3.18;98.54
71774;BME280;59607;52.130;5.430;2023-02-28T02:58:50;103273.38;;;3.16;98.78
71774;BME280;59607;52.130;5.430;2023-02-28T03:01:22;103279.31;;;3.20;99.53
71774;BME280;59607;52.130;5.430;2023-02-28T03:04:09;103274.09;;;3.21;99.60
71774;BME280;59607;52.130;5.430;2023-02-28T03:06:39;103280.00;;;3.25;99.87
71774;BME280;59607;52.130;5.430;2023-02-28T03:09:08;103276.56;;;3.25;99.90
71774;BME280;59607;52.130;5.430;2023-02-28T03:11:41;103279.16;;;3.25;100.00
71774;BME280;59607;52.130;5.430;2023-02-28T03:14:17;103276.56;;;3.25;100.00
71774;BME280;59607;52.130;5.430;2023-02-28T03:19:55;103279.00;;;3.29;99.68
71774;BME280;59607;52.130;5.430;2023-02-28T03:25:13;103275.56;;;3.29;100.00
71774;BME280;59607;52.130;5.430;2023-02-28T03:28:15;103276.63;;;3.23;100.00
71774;BME280;59607;52.130;5.430;2023-02-28T03:31:12;103272.28;;;3.24;100.00
71774;BME280;59607;52.130;5.430;2023-02-28T03:33:56;103272.28;;;3.24;100.00
71774;BME280;59607;52.130;5.430;2023-02-28T03:36:35;103283.53;;;3.24;100.00
71774;BME280;59607;52.130;5.430;2023-02-28T03:39:37;103283.47;;;3.26;100.00
71774;BME280;59607;52.130;5.430;2023-02-28T03:42:09;103286.78;;;3.29;100.00
71774;BME280;59607;52.130;5.430;2023-02-28T03:44:52;103289.44;;;3.28;100.00
71774;BME280;59607;52.130;5.430;2023-02-28T03:47:24;103303.25;;;3.28;100.00
71774;BME280;59607;52.130;5.430;2023-02-28T03:52:27;103301.63;;;3.26;100.00
71774;BME280;59607;52.130;5.430;2023-02-28T03:55:08;103307.63;;;3.26;100.00
71774;BME280;59607;52.130;5.430;2023-02-28T03:57:49;103306.16;;;3.19;100.00
71774;BME280;59607;52.130;5.430;2023-02-28T04:00:30;103305.25;;;3.20;99.81
71774;BME280;59607;52.130;5.430;2023-02-28T04:03:09;103304.31;;;3.23;99.38
71774;BME280;59607;52.130;5.430;2023-02-28T04:05:54;103295.84;;;3.17;98.12
71774;BME280;59607;52.130;5.430;2023-02-28T04:08:26;103295.84;;;3.17;96.98
71774;BME280;59607;52.130;5.430;2023-02-28T04:11:24;103292.41;;;3.17;96.66
71774;BME280;59607;52.130;5.430;2023-02-28T04:13:54;103303.56;;;3.19;94.52
71774;BME280;59607;52.130;5.430;2023-02-28T04:16:28;103299.25;;;3.19;92.38
71774;BME280;59607;52.130;5.430;2023-02-28T04:19:02;103305.41;;;3.15;90.01
71774;BME280;59607;52.130;5.430;2023-02-28T04:21:45;103295.97;;;3.14;88.98
71774;BME280;59607;52.130;5.430;2023-02-28T04:24:20;103304.72;;;3.10;87.09
71774;BME280;59607;52.130;5.430;2023-02-28T04:26:50;103309.25;;;3.05;83.57
71774;BME280;59607;52.130;5.430;2023-02-28T04:29:38;103307.63;;;3.01;82.06
71774;BME280;59607;52.130;5.430;2023-02-28T04:32:12;103305.88;;;3.01;81.29
71774;BME280;59607;52.130;5.430;2023-02-28T04:34:41;103311.22;;;2.96;79.89
71774;BME280;59607;52.130;5.430;2023-02-28T04:37:10;103306.88;;;2.97;79.46
71774;BME280;59607;52.130;5.430;2023-02-28T04:39:40;103314.75;;;2.94;79.67
71774;BME280;59607;52.130;5.430;2023-02-28T04:42:10;103312.16;;;2.94;79.74
71774;BME280;59607;52.130;5.430;2023-02-28T04:44:36;103319.06;;;2.95;79.60
71774;BME280;59607;52.130;5.430;2023-02-28T04:47:06;103324.44;;;2.89;80.43
71774;BME280;59607;52.130;5.430;2023-02-28T04:49:34;103315.00;;;2.86;80.47
71774;BME280;59607;52.130;5.430;2023-02-28T04:52:01;103310.72;;;2.85;80.27
71774;BME280;59607;52.130;5.430;2023-02-28T04:54:28;103309.94;;;2.83;80.67
71774;BME280;59607;52.130;5.430;2023-02-28T04:56:59;103314.84;;;2.91;81.39
71774;BME280;59607;52.130;5.430;2023-02-28T04:59:30;103316.56;;;2.92;81.63
71774;BME280;59607;52.130;5.430;2023-02-28T05:02:00;103315.00;;;2.86;83.10
71774;BME280;59607;52.130;5.430;2023-02-28T05:04:33;103317.81;;;2.80;83.54
71774;BME280;59607;52.130;5.430;2023-02-28T05:07:04;103308.75;;;2.65;84.91
71774;BME280;59607;52.130;5.430;2023-02-28T05:09:30;103310.75;;;2.56;85.82
71774;BME280;59607;52.130;5.430;2023-02-28T05:11:58;103312.75;;;2.48;87.58
71774;BME280;59607;52.130;5.430;2023-02-28T05:14:28;103313.53;;;2.50;88.81
71774;BME280;59607;52.130;5.430;2023-02-28T05:16:54;103311.03;;;2.47;89.71
71774;BME280;59607;52.130;5.430;2023-02-28T05:19:27;103320.56;;;2.46;90.30
71774;BME280;59607;52.130;5.430;2023-02-28T05:21:55;103318.06;;;2.43;90.78
71774;BME280;59607;52.130;5.430;2023-02-28T05:24:22;103322.44;;;2.41;91.40
71774;BME280;59607;52.130;5.430;2023-02-28T05:26:55;103325.91;;;2.40;92.07
71774;BME280;59607;52.130;5.430;2023-02-28T05:29:22;103322.25;;;2.47;92.87
71774;BME280;59607;52.130;5.430;2023-02-28T05:31:48;103325.72;;;2.48;92.44
71774;BME280;59607;52.130;5.430;2023-02-28T05:34:15;103323.91;;;2.50;93.42
71774;BME280;59607;52.130;5.430;2023-02-28T05:36:45;103321.31;;;2.50;93.07
71774;BME280;59607;52.130;5.430;2023-02-28T05:39:12;103321.25;;;2.52;92.98
71774;BME280;59607;52.130;5.430;2023-02-28T05:41:44;103317.88;;;2.50;93.97
71774;BME280;59607;52.130;5.430;2023-02-28T05:44:11;103316.94;;;2.52;93.62
71774;BME280;59607;52.130;5.430;2023-02-28T05:46:38;103323.78;;;2.53;94.09
71774;BME280;59607;52.130;5.430;2023-02-28T05:49:07;103328.25;;;2.50;93.55
71774;BME280;59607;52.130;5.430;2023-02-28T05:51:34;103322.91;;;2.54;93.50
71774;BME280;59607;52.130;5.430;2023-02-28T05:54:10;103328.84;;;2.58;93.90
71774;BME280;59607;52.130;5.430;2023-02-28T05:56:42;103321.88;;;2.60;94.21
71774;BME280;59607;52.130;5.430;2023-02-28T05:59:14;103314.00;;;2.63;94.14
71774;BME280;59607;52.130;5.430;2023-02-28T06:02:01;103320.38;;;2.53;94.83
71774;BME280;59607;52.130;5.430;2023-02-28T06:04:27;103323.59;;;2.59;95.30
71774;BME280;59607;52.130;5.430;2023-02-28T06:06:57;103322.81;;;2.57;94.48
71774;BME280;59607;52.130;5.430;2023-02-28T06:09:24;103324.03;;;2.45;95.63
71774;BME280;59607;52.130;5.430;2023-02-28T06:11:52;103327.88;;;2.33;96.79
71774;BME280;59607;52.130;5.430;2023-02-28T06:14:23;103328.78;;;2.31;97.95
71774;BME280;59607;52.130;5.430;2023-02-28T06:16:49;103322.75;;;2.32;98.87
71774;BME280;59607;52.130;5.430;2023-02-28T06:19:24;103326.19;;;2.31;99.33
71774;BME280;59607;52.130;5.430;2023-02-28T06:21:55;103315.84;;;2.31;99.67
71774;BME280;59607;52.130;5.430;2023-02-28T06:24:28;103311.53;;;2.31;99.77
71774;BME280;59607;52.130;5.430;2023-02-28T06:26:55;103312.13;;;2.40;99.96
71774;BME280;59607;52.130;5.430;2023-02-28T06:29:24;103302.66;;;2.39;100.00
71774;BME280;59607;52.130;5.430;2023-02-28T06:31:51;103311.31;;;2.38;100.00
71774;BME280;59607;52.130;5.430;2023-02-28T06:34:17;103314.06;;;2.33;100.00
71774;BME280;59607;52.130;5.430;2023-02-28T06:36:44;103314.44;;;2.20;100.00
71774;BME280;59607;52.130;5.430;2023-02-28T06:39:10;103316.75;;;2.30;100.00
71774;BME280;59607;52.130;5.430;2023-02-28T06:41:37;103322.84;;;2.27;100.00
71774;BME280;59607;52.130;5.430;2023-02-28T06:44:23;103316.69;;;2.31;100.00
71774;BME280;59607;52.130;5.430;2023-02-28T06:46:50;103326.25;;;2.29;100.00
71774;BME280;59607;52.130;5.430;2023-02-28T06:49:31;103306.34;;;2.31;100.00
71774;BME280;59607;52.130;5.430;2023-02-28T06:52:03;103317.31;;;2.40;100.00
71774;BME280;59607;52.130;5.430;2023-02-28T06:54:30;103325.75;;;2.46;100.00
71774;BME280;59607;52.130;5.430;2023-02-28T06:57:00;103329.22;;;2.45;100.00
71774;BME280;59607;52.130;5.430;2023-02-28T06:59:37;103324.38;;;2.34;100.00
71774;BME280;59607;52.130;5.430;2023-02-28T07:02:03;103331.09;;;2.40;100.00
71774;BME280;59607;52.130;5.430;2023-02-28T07:04:34;103335.31;;;2.44;100.00
71774;BME280;59607;52.130;5.430;2023-02-28T07:07:06;103338.66;;;2.48;100.00
71774;BME280;59607;52.130;5.430;2023-02-28T07:09:35;103330.03;;;2.47;100.00
71774;BME280;59607;52.130;5.430;2023-02-28T07:12:02;103341.25;;;2.48;100.00
71774;BME280;59607;52.130;5.430;2023-02-28T07:14:47;103336.84;;;2.50;100.00
71774;BME280;59607;52.130;5.430;2023-02-28T07:17:17;103337.56;;;2.55;100.00
71774;BME280;59607;52.130;5.430;2023-02-28T07:19:43;103328.88;;;2.56;100.00
71774;BME280;59607;52.130;5.430;2023-02-28T07:22:13;103334.00;;;2.58;100.00
71774;BME280;59607;52.130;5.430;2023-02-28T07:24:45;103338.31;;;2.59;100.00
71774;BME280;59607;52.130;5.430;2023-02-28T07:27:11;103338.38;;;2.57;100.00
71774;BME280;59607;52.130;5.430;2023-02-28T07:29:43;103338.31;;;2.59;100.00
71774;BME280;59607;52.130;5.430;2023-02-28T07:32:10;103343.50;;;2.59;100.00
71774;BME280;59607;52.130;5.430;2023-02-28T07:34:47;103337.06;;;2.71;100.00
71774;BME280;59607;52.130;5.430;2023-02-28T07:37:14;103331.00;;;2.72;100.00
71774;BME280;59607;52.130;5.430;2023-02-28T07:39:43;103330.25;;;2.68;100.00
71774;BME280;59607;52.130;5.430;2023-02-28T07:42:10;103340.66;;;2.67;100.00
71774;BME280;59607;52.130;5.430;2023-02-28T07:44:47;103347.69;;;2.63;100.00
71774;BME280;59607;52.130;5.430;2023-02-28T07:47:17;103350.03;;;2.71;100.00
71774;BME280;59607;52.130;5.430;2023-02-28T07:49:45;103351.75;;;2.72;100.00
71774;BME280;59607;52.130;5.430;2023-02-28T07:52:15;103356.13;;;2.70;100.00
71774;BME280;59607;52.130;5.430;2023-02-28T07:54:42;103351.03;;;2.67;100.00
71774;BME280;59607;52.130;5.430;2023-02-28T07:57:08;103349.16;;;2.72;100.00
71774;BME280;59607;52.130;5.430;2023-02-28T07:59:44;103350.41;;;2.87;100.00
71774;BME280;59607;52.130;5.430;2023-02-28T08:02:15;103336.94;;;3.03;100.00
71774;BME280;59607;52.130;5.430;2023-02-28T08:04:42;103356.53;;;3.12;100.00
71774;BME280;59607;52.130;5.430;2023-02-28T08:07:09;103351.41;;;3.10;100.00
71774;BME280;59607;52.130;5.430;2023-02-28T08:09:40;103369.75;;;3.04;100.00
71774;BME280;59607;52.130;5.430;2023-02-28T08:12:08;103372.28;;;3.05;100.00
71774;BME280;59607;52.130;5.430;2023-02-28T08:14:35;103364.47;;;3.07;100.00
71774;BME280;59607;52.130;5.430;2023-02-28T08:17:10;103359.22;;;3.08;100.00
71774;BME280;59607;52.130;5.430;2023-02-28T08:19:37;103374.78;;;3.08;100.00
71774;BME280;59607;52.130;5.430;2023-02-28T08:22:12;103371.47;;;3.05;100.00
71774;BME280;59607;52.130;5.430;2023-02-28T08:24:41;103369.59;;;3.08;100.00
71774;BME280;59607;52.130;5.430;2023-02-28T08:27:11;103365.88;;;3.17;99.78
71774;BME280;59607;52.130;5.430;2023-02-28T08:29:44;103377.00;;;3.21;98.80
71774;BME280;59607;52.130;5.430;2023-02-28T08:32:13;103373.22;;;3.30;97.70
71774;BME280;59607;52.130;5.430;2023-02-28T08:34:54;103368.44;;;3.44;96.69
71774;BME280;59607;52.130;5.430;2023-02-28T08:37:21;103364.69;;;3.53;96.45
71774;BME280;59607;52.130;5.430;2023-02-28T08:39:47;103368.59;;;3.65;95.06
71774;BME280;59607;52.130;5.430;2023-02-28T08:42:14;103377.38;;;3.61;91.81
71774;BME280;59607;52.130;5.430;2023-02-28T08:44:41;103368.41;;;3.70;91.00
71774;BME280;59607;52.130;5.430;2023-02-28T08:47:20;103361.97;;;3.82;89.52
71774;BME280;59607;52.130;5.430;2023-02-28T08:49:49;103364.16;;;3.93;87.13
71774;BME280;59607;52.130;5.430;2023-02-28T08:52:16;103359.53;;;4.01;85.92
71774;BME280;59607;52.130;5.430;2023-02-28T08:54:52;103350.13;;;3.99;83.09
71774;BME280;59607;52.130;5.430;2023-02-28T08:57:19;103361.56;;;3.93;81.14
71774;BME280;59607;52.130;5.430;2023-02-28T08:59:45;103364.16;;;3.93;79.55
71774;BME280;59607;52.130;5.430;2023-02-28T09:02:15;103364.72;;;4.01;78.62
71774;BME280;59607;52.130;5.430;2023-02-28T09:04:42;103363.94;;;3.99;75.59
71774;BME280;59607;52.130;5.430;2023-02-28T09:07:12;103360.97;;;4.10;74.36
71774;BME280;59607;52.130;5.430;2023-02-28T09:09:45;103355.25;;;4.24;71.22
71774;BME280;59607;52.130;5.430;2023-02-28T09:12:27;103355.25;;;4.69;70.83
71774;BME280;59607;52.130;5.430;2023-02-28T09:15:03;103354.28;;;4.94;66.84
71774;BME280;59607;52.130;5.430;2023-02-28T09:17:29;103357.84;;;5.14;66.46
71774;BME280;59607;52.130;5.430;2023-02-28T09:19:57;103358.84;;;5.10;63.76
71774;BME280;59607;52.130;5.430;2023-02-28T09:22:37;103361.50;;;5.08;61.80
71774;BME280;59607;52.130;5.430;2023-02-28T09:25:08;103361.50;;;5.08;62.12
71774;BME280;59607;52.130;5.430;2023-02-28T09:27:35;103358.09;;;5.08;61.47
71774;BME280;59607;52.130;5.430;2023-02-28T09:30:12;103353.06;;;5.03;60.13
71774;BME280;59607;52.130;5.430;2023-02-28T09:32:38;103357.09;;;4.89;59.03
71774;BME280;59607;52.130;5.430;2023-02-28T09:35:06;103356.88;;;4.94;58.48
71774;BME280;59607;52.130;5.430;2023-02-28T09:37:40;103363.16;;;5.11;58.27
71774;BME280;59607;52.130;5.430;2023-02-28T09:40:13;103368.88;;;5.19;57.11
71774;BME280;59607;52.130;5.430;2023-02-28T09:42:47;103368.78;;;5.22;56.85
71774;BME280;59607;52.130;5.430;2023-02-28T09:45:25;103358.38;;;5.22;55.17
71774;BME280;59607;52.130;5.430;2023-02-28T09:48:09;103368.38;;;5.11;55.22
71774;BME280;59607;52.130;5.430;2023-02-28T09:50:50;103371.19;;;5.27;55.39
71774;BME280;59607;52.130;5.430;2023-02-28T09:53:29;103365.50;;;5.38;54.65
71774;BME280;59607;52.130;5.430;2023-02-28T09:56:12;103367.56;;;5.50;53.39
71774;BME280;59607;52.130;5.430;2023-02-28T09:59:05;103369.03;;;5.58;53.02
71774;BME280;59607;52.130;5.430;2023-02-28T10:01:49;103368.41;;;5.72;51.35
71774;BME280;59607;52.130;5.430;2023-02-28T10:04:50;103367.03;;;5.84;52.11
71774;BME280;59607;52.130;5.430;2023-02-28T10:10:41;103359.38;;;6.00;51.96
71774;BME280;59607;52.130;5.430;2023-02-28T10:16:03;103351.53;;;6.21;48.26
71774;BME280;59607;52.130;5.430;2023-02-28T10:18:43;103347.50;;;6.52;48.85
71774;BME280;59607;52.130;5.430;2023-02-28T10:21:31;103344.81;;;6.53;48.22
71774;BME280;59607;52.130;5.430;2023-02-28T10:27:25;103337.41;;;6.99;47.34
71774;BME280;59607;52.130;5.430;2023-02-28T10:29:54;103338.69;;;6.90;48.45
71774;BME280;59607;52.130;5.430;2023-02-28T10:32:30;103345.00;;;6.86;46.29
71774;BME280;59607;52.130;5.430;2023-02-28T10:35:09;103343.38;;;6.83;47.71
71774;BME280;59607;52.130;5.430;2023-02-28T10:37:42;103349.09;;;6.54;45.09
71774;BME280;59607;52.130;5.430;2023-02-28T10:43:05;103351.44;;;6.22;45.71
71774;BME280;59607;52.130;5.430;2023-02-28T10:45:38;103347.00;;;6.44;47.14
71774;BME280;59607;52.130;5.430;2023-02-28T10:51:12;103348.94;;;6.58;46.78
71774;BME280;59607;52.130;5.430;2023-02-28T10:53:54;103337.66;;;6.57;46.10
71774;BME280;59607;52.130;5.430;2023-02-28T10:56:31;103330.69;;;6.58;46.15
71774;BME280;59607;52.130;5.430;2023-02-28T10:59:36;103328.56;;;6.29;45.82
71774;BME280;59607;52.130;5.430;2023-02-28T11:02:38;103330.66;;;6.40;46.18
71774;BME280;59607;52.130;5.430;2023-02-28T11:05:32;103320.56;;;6.51;45.75
71774;BME280;59607;52.130;5.430;2023-02-28T11:08:10;103332.31;;;6.41;46.29
71774;BME280;59607;52.130;5.430;2023-02-28T11:10:38;103330.69;;;6.21;44.16
71774;BME280;59607;52.130;5.430;2023-02-28T11:13:31;103324.75;;;6.17;45.88
71774;BME280;59607;52.130;5.430;2023-02-28T11:16:01;103307.13;;;6.41;46.33
71774;BME280;59607;52.130;5.430;2023-02-28T11:18:53;103323.47;;;6.45;45.77
71774;BME280;59607;52.130;5.430;2023-02-28T11:23:49;103304.34;;;6.45;44.58
71774;BME280;59607;52.130;5.430;2023-02-28T11:26:44;103310.59;;;6.23;45.89
71774;BME280;59607;52.130;5.430;2023-02-28T11:29:24;103311.84;;;6.33;44.79
71774;BME280;59607;52.130;5.430;2023-02-28T11:32:17;103308.38;;;6.33;45.69
71774;BME280;59607;52.130;5.430;2023-02-28T11:35:30;103305.78;;;6.52;45.27
71774;BME280;59607;52.130;5.430;2023-02-28T11:38:07;103304.44;;;6.43;45.29
71774;BME280;59607;52.130;5.430;2023-02-28T11:46:34;103297.09;;;6.51;45.63
71774;BME280;59607;52.130;5.430;2023-02-28T11:49:34;103293.06;;;6.44;43.53
71774;BME280;59607;52.130;5.430;2023-02-28T11:53:01;103293.16;;;6.42;44.34
71774;BME280;59607;52.130;5.430;2023-02-28T11:55:15;103295.00;;;6.40;43.50
71774;BME280;59607;52.130;5.430;2023-02-28T12:08:51;103278.69;;;6.72;45.39
71774;BME280;59607;52.130;5.430;2023-02-28T12:11:52;103280.28;;;6.75;43.83
71774;BME280;59607;52.130;5.430;2023-02-28T12:20:43;103272.84;;;6.85;44.62
71774;BME280;59607;52.130;5.430;2023-02-28T12:23:32;103274.88;;;6.97;43.40
71774;BME280;59607;52.130;5.430;2023-02-28T12:26:37;103273.16;;;6.96;43.70
71774;BME280;59607;52.130;5.430;2023-02-28T12:31:45;103263.19;;;6.87;43.59
71774;BME280;59607;52.130;5.430;2023-02-28T12:34:22;103260.59;;;6.87;43.97
71774;BME280;59607;52.130;5.430;2023-02-28T12:37:22;103258.84;;;6.87;43.22
71774;BME280;59607;52.130;5.430;2023-02-28T12:40:03;103259.13;;;6.99;43.11
71774;BME280;59607;52.130;5.430;2023-02-28T12:42:43;103267.88;;;6.98;43.42
71774;BME280;59607;52.130;5.430;2023-02-28T12:45:24;103257.09;;;7.04;42.89
71774;BME280;59607;52.130;5.430;2023-02-28T12:47:59;103248.47;;;7.03;42.49
71774;BME280;59607;52.130;5.430;2023-02-28T12:50:30;103256.59;;;6.97;42.13
71774;BME280;59607;52.130;5.430;2023-02-28T12:53:10;103251.91;;;6.86;42.76
71774;BME280;59607;52.130;5.430;2023-02-28T12:58:54;103246.63;;;6.88;42.57
71774;BME280;59607;52.130;5.430;2023-02-28T13:01:38;103237.28;;;6.84;42.33
71774;BME280;59607;52.130;5.430;2023-02-28T13:07:30;103236.06;;;7.25;42.21
71774;BME280;59607;52.130;5.430;2023-02-28T13:10:03;103235.81;;;6.96;42.83
71774;BME280;59607;52.130;5.430;2023-02-28T13:12:51;103225.13;;;7.00;43.31
71774;BME280;59607;52.130;5.430;2023-02-28T13:16:01;103226.50;;;7.08;43.01
71774;BME280;59607;52.130;5.430;2023-02-28T13:18:29;103234.03;;;6.96;42.68
71774;BME280;59607;52.130;5.430;2023-02-28T13:21:04;103239.09;;;6.99;41.71
71774;BME280;59607;52.130;5.430;2023-02-28T13:26:13;103229.75;;;6.77;42.22
71774;BME280;59607;52.130;5.430;2023-02-28T13:31:22;103216.91;;;7.08;42.60
71774;BME280;59607;52.130;5.430;2023-02-28T13:36:32;103214.81;;;7.15;41.99
71774;BME280;59607;52.130;5.430;2023-02-28T13:39:11;103214.75;;;7.33;41.82
71774;BME280;59607;52.130;5.430;2023-02-28T13:45:20;103210.53;;;6.96;41.45
71774;BME280;59607;52.130;5.430;2023-02-28T13:48:00;103211.75;;;7.07;41.70
71774;BME280;59607;52.130;5.430;2023-02-28T13:50:40;103210.41;;;7.15;40.72
71774;BME280;59607;52.130;5.430;2023-02-28T13:56:36;103201.66;;;7.00;41.27
71774;BME280;59607;52.130;5.430;2023-02-28T13:59:33;103203.31;;;7.01;41.50
71774;BME280;59607;52.130;5.430;2023-02-28T14:05:01;103192.91;;;7.18;41.89
71774;BME280;59607;52.130;5.430;2023-02-28T14:07:49;103198.06;;;7.19;40.76
71774;BME280;59607;52.130;5.430;2023-02-28T14:10:46;103185.88;;;7.20;42.10
71774;BME280;59607;52.130;5.430;2023-02-28T14:13:45;103187.13;;;7.28;41.58
71774;BME280;59607;52.130;5.430;2023-02-28T14:16:22;103182.66;;;7.31;41.99
71774;BME280;59607;52.130;5.430;2023-02-28T14:19:02;103189.19;;;7.39;41.65
71774;BME280;59607;52.130;5.430;2023-02-28T14:21:36;103181.44;;;7.38;41.46
71774;BME280;59607;52.130;5.430;2023-02-28T14:33:23;103169.06;;;7.08;42.38
71774;BME280;59607;52.130;5.430;2023-02-28T14:36:10;103183.09;;;7.23;42.31
71774;BME280;59607;52.130;5.430;2023-02-28T14:38:57;103172.13;;;7.16;41.74
71774;BME280;59607;52.130;5.430;2023-02-28T14:43:56;103176.41;;;7.17;41.97
71774;BME280;59607;52.130;5.430;2023-02-28T14:46:34;103162.25;;;7.05;42.17
71774;BME280;59607;52.130;5.430;2023-02-28T14:49:28;103174.13;;;7.11;42.02
71774;BME280;59607;52.130;5.430;2023-02-28T14:52:28;103169.75;;;7.11;42.34
71774;BME280;59607;52.130;5.430;2023-02-28T14:54:59;103173.63;;;7.20;42.53
71774;BME280;59607;52.130;5.430;2023-02-28T14:57:51;103167.16;;;7.11;42.10
71774;BME280;59607;52.130;5.430;2023-02-28T15:00:28;103171.78;;;7.06;42.75
71774;BME280;59607;52.130;5.430;2023-02-28T15:03:11;103173.31;;;7.10;41.78
71774;BME280;59607;52.130;5.430;2023-02-28T15:05:54;103162.19;;;7.07;42.60
71774;BME280;59607;52.130;5.430;2023-02-28T15:08:21;103164.19;;;7.01;42.70
71774;BME280;59607;52.130;5.430;2023-02-28T15:10:58;103161.41;;;7.04;42.57
71774;BME280;59607;52.130;5.430;2023-02-28T15:13:36;103166.19;;;6.96;42.58
71774;BME280;59607;52.130;5.430;2023-02-28T15:16:30;103173.69;;;7.02;43.12
71774;BME280;59607;52.130;5.430;2023-02-28T15:19:14;103170.06;;;6.89;42.54
71774;BME280;59607;52.130;5.430;2023-02-28T15:21:50;103166.06;;;6.82;42.89
71774;BME280;59607;52.130;5.430;2023-02-28T15:24:27;103174.06;;;6.78;42.42
71774;BME280;59607;52.130;5.430;2023-02-28T15:27:00;103176.75;;;6.77;42.40
71774;BME280;59607;52.130;5.430;2023-02-28T15:29:43;103170.66;;;6.76;42.09
71774;BME280;59607;52.130;5.430;2023-02-28T15:32:38;103177.44;;;6.81;42.65
71774;BME280;59607;52.130;5.430;2023-02-28T15:40:29;103177.22;;;6.68;42.63